sensor_id;sensor_type;location;lat;lon;timestamp;pressure;altitude;pressure_sealevel;temperature;humidity
49473;BME280;73594;50.944;6.950;2024-01-11T00:00:25;102604.22;;;-4.29;83.24
49473;BME280;73594;50.944;6.950;2024-01-11T00:02:50;102600.00;;;-4.31;83.20
49473;BME280;73594;50.944;6.950;2024-01-11T00:05:16;102599.88;;;-4.30;83.39
49473;BME280;73594;50.944;6.950;2024-01-11T00:07:41;102600.72;;;-4.29;83.28
49473;BME280;73594;50.944;6.950;2024-01-11T00:10:06;102603.47;;;-4.31;83.29
49473;BME280;73594;50.944;6.950;2024-01-11T00:12:32;102594.84;;;-4.33;82.76
49473;BME280;73594;50.944;6.950;2024-01-11T00:14:57;102594.72;;;-4.31;82.51
49473;BME280;73594;50.944;6.950;2024-01-11T00:17:24;102590.50;;;-4.34;82.10
49473;BME280;73594;50.944;6.950;2024-01-11T00:19:50;102603.81;;;-4.35;82.37
49473;BME280;73594;50.944;6.950;2024-01-11T00:22:16;102587.75;;;-4.32;82.57
49473;BME280;73594;50.944;6.950;2024-01-11T00:24:41;102586.31;;;-4.36;82.59
49473;BME280;73594;50.944;6.950;2024-01-11T00:27:08;102588.47;;;-4.30;81.98
49473;BME280;73594;50.944;6.950;2024-01-11T00:29:35;102585.84;;;-4.30;82.05
49473;BME280;73594;50.944;6.950;2024-01-11T00:32:00;102591.59;;;-4.36;82.18
49473;BME280;73594;50.944;6.950;2024-01-11T00:34:25;102586.06;;;-4.33;82.68
49473;BME280;73594;50.944;6.950;2024-01-11T00:36:51;102602.03;;;-4.35;82.68
49473;BME280;73594;50.944;6.950;2024-01-11T00:39:16;102595.19;;;-4.37;82.89
49473;BME280;73594;50.944;6.950;2024-01-11T00:41:43;102592.53;;;-4.37;82.97
49473;BME280;73594;50.944;6.950;2024-01-11T00:44:08;102596.25;;;-4.40;83.36
49473;BME280;73594;50.944;6.950;2024-01-11T00:46:34;102598.06;;;-4.41;83.08
49473;BME280;73594;50.944;6.950;2024-01-11T00:49:00;102598.28;;;-4.44;83.62
49473;BME280;73594;50.944;6.950;2024-01-11T00:51:25;102607.16;;;-4.45;83.71
49473;BME280;73594;50.944;6.950;2024-01-11T00:53:51;102608.94;;;-4.45;84.03
49473;BME280;73594;50.944;6.950;2024-01-11T00:56:19;102603.56;;;-4.44;84.01
49473;BME280;73594;50.944;6.950;2024-01-11T00:58:46;102611.38;;;-4.42;84.35
49473;BME280;73594;50.944;6.950;2024-01-11T01:01:12;102615.69;;;-4.41;84.48
49473;BME280;73594;50.944;6.950;2024-01-11T01:03:39;102608.84;;;-4.44;84.55
49473;BME280;73594;50.944;6.950;2024-01-11T01:06:05;102599.22;;;-4.45;84.71
49473;BME280;73594;50.944;6.950;2024-01-11T01:08:31;102600.91;;;-4.44;84.44
49473;BME280;73594;50.944;6.950;2024-01-11T01:10:56;102603.75;;;-4.47;84.77
49473;BME280;73594;50.944;6.950;2024-01-11T01:13:22;102613.59;;;-4.49;85.34
49473;BME280;73594;50.944;6.950;2024-01-11T01:15:47;102607.81;;;-4.54;85.33
49473;BME280;73594;50.944;6.950;2024-01-11T01:18:13;102611.50;;;-4.56;85.53
49473;BME280;73594;50.944;6.950;2024-01-11T01:20:41;102604.56;;;-4.57;85.48
49473;BME280;73594;50.944;6.950;2024-01-11T01:23:07;102599.63;;;-4.62;85.67
49473;BME280;73594;50.944;6.950;2024-01-11T01:25:32;102601.19;;;-4.59;85.68
49473;BME280;73594;50.944;6.950;2024-01-11T01:27:57;102602.13;;;-4.60;85.98
49473;BME280;73594;50.944;6.950;2024-01-11T01:30:24;102609.44;;;-4.64;86.40
49473;BME280;73594;50.944;6.950;2024-01-11T01:32:50;102607.75;;;-4.65;86.33
49473;BME280;73594;50.944;6.950;2024-01-11T01:35:15;102608.81;;;-4.67;86.52
49473;BME280;73594;50.944;6.950;2024-01-11T01:37:41;102617.69;;;-4.68;86.53
49473;BME280;73594;50.944;6.950;2024-01-11T01:40:07;102615.78;;;-4.66;86.81
49473;BME280;73594;50.944;6.950;2024-01-11T01:42:33;102626.44;;;-4.68;87.59
49473;BME280;73594;50.944;6.950;2024-01-11T01:44:58;102619.59;;;-4.70;87.47
49473;BME280;73594;50.944;6.950;2024-01-11T01:47:24;102618.03;;;-4.73;87.72
49473;BME280;73594;50.944;6.950;2024-01-11T01:49:49;102620.22;;;-4.67;87.95
49473;BME280;73594;50.944;6.950;2024-01-11T01:52:15;102620.34;;;-4.68;88.03
49473;BME280;73594;50.944;6.950;2024-01-11T01:54:41;102622.13;;;-4.69;87.88
49473;BME280;73594;50.944;6.950;2024-01-11T01:57:07;102625.59;;;-4.68;88.17
49473;BME280;73594;50.944;6.950;2024-01-11T01:59:33;102630.03;;;-4.69;87.84
49473;BME280;73594;50.944;6.950;2024-01-11T02:01:59;102628.59;;;-4.73;87.94
49473;BME280;73594;50.944;6.950;2024-01-11T02:04:24;102625.31;;;-4.77;87.83
49473;BME280;73594;50.944;6.950;2024-01-11T02:06:51;102629.97;;;-4.80;88.11
49473;BME280;73594;50.944;6.950;2024-01-11T02:09:18;102636.22;;;-4.81;88.21
49473;BME280;73594;50.944;6.950;2024-01-11T02:11:44;102639.88;;;-4.84;88.44
49473;BME280;73594;50.944;6.950;2024-01-11T02:14:10;102635.66;;;-4.86;88.76
49473;BME280;73594;50.944;6.950;2024-01-11T02:16:36;102631.56;;;-4.90;88.86
49473;BME280;73594;50.944;6.950;2024-01-11T02:19:02;102638.53;;;-4.89;89.46
49473;BME280;73594;50.944;6.950;2024-01-11T02:21:30;102643.81;;;-4.89;89.72
49473;BME280;73594;50.944;6.950;2024-01-11T02:24:06;102644.03;;;-4.92;90.12
49473;BME280;73594;50.944;6.950;2024-01-11T02:26:33;102627.34;;;-4.93;90.71
49473;BME280;73594;50.944;6.950;2024-01-11T02:28:59;102619.78;;;-4.97;91.02
49473;BME280;73594;50.944;6.950;2024-01-11T02:31:24;102627.25;;;-4.91;91.32
49473;BME280;73594;50.944;6.950;2024-01-11T02:33:51;102635.78;;;-4.88;91.20
49473;BME280;73594;50.944;6.950;2024-01-11T02:36:18;102628.72;;;-4.87;91.44
49473;BME280;73594;50.944;6.950;2024-01-11T02:38:44;102618.91;;;-4.85;91.54
49473;BME280;73594;50.944;6.950;2024-01-11T02:41:10;102624.91;;;-4.83;91.14
49473;BME280;73594;50.944;6.950;2024-01-11T02:43:36;102617.22;;;-4.86;91.23
49473;BME280;73594;50.944;6.950;2024-01-11T02:46:03;102610.97;;;-4.85;91.20
49473;BME280;73594;50.944;6.950;2024-01-11T02:48:29;102619.84;;;-4.86;91.26
49473;BME280;73594;50.944;6.950;2024-01-11T02:50:56;102611.63;;;-4.82;90.75
49473;BME280;73594;50.944;6.950;2024-01-11T02:53:21;102618.38;;;-4.78;89.84
49473;BME280;73594;50.944;6.950;2024-01-11T02:55:47;102619.53;;;-4.82;89.78
49473;BME280;73594;50.944;6.950;2024-01-11T02:58:12;102613.44;;;-4.82;89.52
49473;BME280;73594;50.944;6.950;2024-01-11T03:00:38;102616.25;;;-4.85;89.70
49473;BME280;73594;50.944;6.950;2024-01-11T03:03:03;102626.63;;;-4.82;89.40
49473;BME280;73594;50.944;6.950;2024-01-11T03:05:29;102632.09;;;-4.85;89.39
49473;BME280;73594;50.944;6.950;2024-01-11T03:07:54;102633.75;;;-4.84;89.27
49473;BME280;73594;50.944;6.950;2024-01-11T03:10:19;102625.13;;;-4.86;89.02
49473;BME280;73594;50.944;6.950;2024-01-11T03:12:45;102612.88;;;-4.87;88.74
49473;BME280;73594;50.944;6.950;2024-01-11T03:15:10;102608.78;;;-4.91;88.76
49473;BME280;73594;50.944;6.950;2024-01-11T03:17:36;102601.81;;;-4.92;89.22
49473;BME280;73594;50.944;6.950;2024-01-11T03:20:01;102603.97;;;-4.97;89.76
49473;BME280;73594;50.944;6.950;2024-01-11T03:22:30;102601.31;;;-4.97;89.94
49473;BME280;73594;50.944;6.950;2024-01-11T03:24:55;102603.84;;;-4.96;89.78
49473;BME280;73594;50.944;6.950;2024-01-11T03:27:22;102606.38;;;-4.94;89.48
49473;BME280;73594;50.944;6.950;2024-01-11T03:29:47;102606.19;;;-5.04;89.59
49473;BME280;73594;50.944;6.950;2024-01-11T03:32:14;102612.72;;;-4.97;89.60
49473;BME280;73594;50.944;6.950;2024-01-11T03:34:40;102608.50;;;-4.99;89.37
49473;BME280;73594;50.944;6.950;2024-01-11T03:37:05;102611.75;;;-4.96;88.87
49473;BME280;73594;50.944;6.950;2024-01-11T03:39:31;102608.50;;;-4.99;88.08
49473;BME280;73594;50.944;6.950;2024-01-11T03:41:56;102596.72;;;-5.07;87.26
49473;BME280;73594;50.944;6.950;2024-01-11T03:44:22;102605.47;;;-5.06;86.86
49473;BME280;73594;50.944;6.950;2024-01-11T03:46:48;102605.56;;;-5.08;86.80
49473;BME280;73594;50.944;6.950;2024-01-11T03:49:13;102610.34;;;-5.13;86.89
49473;BME280;73594;50.944;6.950;2024-01-11T03:51:39;102617.41;;;-5.13;86.57
49473;BME280;73594;50.944;6.950;2024-01-11T03:54:06;102614.88;;;-5.15;86.52
49473;BME280;73594;50.944;6.950;2024-01-11T03:56:31;102616.56;;;-5.14;86.64
49473;BME280;73594;50.944;6.950;2024-01-11T03:58:57;102622.47;;;-5.23;86.94
49473;BME280;73594;50.944;6.950;2024-01-11T04:01:22;102608.97;;;-5.31;87.29
49473;BME280;73594;50.944;6.950;2024-01-11T04:03:47;102621.31;;;-5.31;87.80
49473;BME280;73594;50.944;6.950;2024-01-11T04:06:24;102608.56;;;-5.38;88.52
49473;BME280;73594;50.944;6.950;2024-01-11T04:08:50;102604.88;;;-5.35;88.48
49473;BME280;73594;50.944;6.950;2024-01-11T04:11:16;102619.53;;;-5.31;89.06
49473;BME280;73594;50.944;6.950;2024-01-11T04:13:42;102623.09;;;-5.32;89.22
49473;BME280;73594;50.944;6.950;2024-01-11T04:16:07;102626.50;;;-5.43;89.52
49473;BME280;73594;50.944;6.950;2024-01-11T04:18:33;102626.72;;;-5.46;90.04
49473;BME280;73594;50.944;6.950;2024-01-11T04:20:59;102631.66;;;-5.41;90.48
49473;BME280;73594;50.944;6.950;2024-01-11T04:23:24;102634.72;;;-5.47;90.79
49473;BME280;73594;50.944;6.950;2024-01-11T04:25:50;102632.41;;;-5.52;91.16
49473;BME280;73594;50.944;6.950;2024-01-11T04:28:18;102634.53;;;-5.57;91.51
49473;BME280;73594;50.944;6.950;2024-01-11T04:30:44;102623.31;;;-5.60;91.40
49473;BME280;73594;50.944;6.950;2024-01-11T04:33:09;102632.19;;;-5.61;91.44
49473;BME280;73594;50.944;6.950;2024-01-11T04:35:35;102640.50;;;-5.68;91.85
49473;BME280;73594;50.944;6.950;2024-01-11T04:38:01;102643.03;;;-5.66;92.23
49473;BME280;73594;50.944;6.950;2024-01-11T04:40:26;102651.56;;;-5.75;93.00
49473;BME280;73594;50.944;6.950;2024-01-11T04:42:51;102658.94;;;-5.80;93.15
49473;BME280;73594;50.944;6.950;2024-01-11T04:45:17;102654.00;;;-5.85;93.73
49473;BME280;73594;50.944;6.950;2024-01-11T04:47:42;102656.63;;;-5.85;94.15
49473;BME280;73594;50.944;6.950;2024-01-11T04:50:08;102647.97;;;-5.87;93.90
49473;BME280;73594;50.944;6.950;2024-01-11T04:52:33;102654.50;;;-5.80;93.74
49473;BME280;73594;50.944;6.950;2024-01-11T04:54:58;102659.78;;;-5.80;93.58
49473;BME280;73594;50.944;6.950;2024-01-11T04:57:24;102662.31;;;-5.78;93.50
49473;BME280;73594;50.944;6.950;2024-01-11T04:59:49;102650.94;;;-5.79;93.61
49473;BME280;73594;50.944;6.950;2024-01-11T05:02:15;102662.53;;;-5.81;93.80
49473;BME280;73594;50.944;6.950;2024-01-11T05:04:40;102669.16;;;-5.76;93.93
49473;BME280;73594;50.944;6.950;2024-01-11T05:07:05;102663.91;;;-5.76;94.30
49473;BME280;73594;50.944;6.950;2024-01-11T05:09:31;102662.31;;;-5.78;94.06
49473;BME280;73594;50.944;6.950;2024-01-11T05:11:56;102669.78;;;-5.72;93.92
49473;BME280;73594;50.944;6.950;2024-01-11T05:14:21;102669.69;;;-5.71;94.55
49473;BME280;73594;50.944;6.950;2024-01-11T05:16:47;102675.28;;;-5.62;94.27
49473;BME280;73594;50.944;6.950;2024-01-11T05:19:12;102663.06;;;-5.63;94.29
49473;BME280;73594;50.944;6.950;2024-01-11T05:21:37;102655.78;;;-5.73;94.02
49473;BME280;73594;50.944;6.950;2024-01-11T05:24:03;102656.00;;;-5.76;94.14
49473;BME280;73594;50.944;6.950;2024-01-11T05:26:28;102653.47;;;-5.77;94.56
49473;BME280;73594;50.944;6.950;2024-01-11T05:28:54;102660.72;;;-5.81;94.66
49473;BME280;73594;50.944;6.950;2024-01-11T05:31:19;102662.53;;;-5.81;95.13
49473;BME280;73594;50.944;6.950;2024-01-11T05:33:46;102660.00;;;-5.83;95.20
49473;BME280;73594;50.944;6.950;2024-01-11T05:36:11;102664.22;;;-5.80;95.70
49473;BME280;73594;50.944;6.950;2024-01-11T05:38:38;102662.00;;;-5.74;95.64
49473;BME280;73594;50.944;6.950;2024-01-11T05:41:04;102665.69;;;-5.76;95.60
49473;BME280;73594;50.944;6.950;2024-01-11T05:43:29;102678.75;;;-5.75;95.24
49473;BME280;73594;50.944;6.950;2024-01-11T05:45:54;102683.47;;;-5.80;95.66
49473;BME280;73594;50.944;6.950;2024-01-11T05:48:21;102682.22;;;-5.87;96.02
49473;BME280;73594;50.944;6.950;2024-01-11T05:50:47;102696.88;;;-5.83;96.13
49473;BME280;73594;50.944;6.950;2024-01-11T05:53:12;102698.66;;;-5.83;96.24
49473;BME280;73594;50.944;6.950;2024-01-11T05:55:38;102698.56;;;-5.82;96.25
49473;BME280;73594;50.944;6.950;2024-01-11T05:58:05;102705.59;;;-5.82;96.07
49473;BME280;73594;50.944;6.950;2024-01-11T06:00:32;102704.75;;;-5.83;96.25
49473;BME280;73594;50.944;6.950;2024-01-11T06:02:57;102695.19;;;-5.84;96.29
49473;BME280;73594;50.944;6.950;2024-01-11T06:05:22;102688.56;;;-5.89;96.40
49473;BME280;73594;50.944;6.950;2024-01-11T06:07:48;102696.84;;;-5.95;96.25
49473;BME280;73594;50.944;6.950;2024-01-11T06:10:14;102706.53;;;-5.96;96.66
49473;BME280;73594;50.944;6.950;2024-01-11T06:12:40;102716.13;;;-5.95;96.64
49473;BME280;73594;50.944;6.950;2024-01-11T06:15:06;102708.44;;;-5.98;96.49
49473;BME280;73594;50.944;6.950;2024-01-11T06:17:32;102714.09;;;-6.04;96.76
49473;BME280;73594;50.944;6.950;2024-01-11T06:19:57;102721.03;;;-6.03;96.70
49473;BME280;73594;50.944;6.950;2024-01-11T06:22:23;102724.19;;;-6.11;97.30
49473;BME280;73594;50.944;6.950;2024-01-11T06:24:48;102722.59;;;-6.13;97.92
49473;BME280;73594;50.944;6.950;2024-01-11T06:27:13;102735.13;;;-6.17;98.17
49473;BME280;73594;50.944;6.950;2024-01-11T06:29:39;102740.28;;;-6.15;98.12
49473;BME280;73594;50.944;6.950;2024-01-11T06:32:05;102724.78;;;-6.20;97.52
49473;BME280;73594;50.944;6.950;2024-01-11T06:34:30;102719.44;;;-6.18;97.72
49473;BME280;73594;50.944;6.950;2024-01-11T06:36:56;102714.56;;;-6.24;98.06
49473;BME280;73594;50.944;6.950;2024-01-11T06:39:21;102711.72;;;-6.21;97.69
49473;BME280;73594;50.944;6.950;2024-01-11T06:41:47;102709.84;;;-6.19;98.04
49473;BME280;73594;50.944;6.950;2024-01-11T06:44:12;102727.13;;;-6.15;98.56
49473;BME280;73594;50.944;6.950;2024-01-11T06:46:38;102725.22;;;-6.13;98.72
49473;BME280;73594;50.944;6.950;2024-01-11T06:49:09;102728.91;;;-6.16;98.66
49473;BME280;73594;50.944;6.950;2024-01-11T06:51:34;102732.19;;;-6.12;98.81
49473;BME280;73594;50.944;6.950;2024-01-11T06:54:00;102721.03;;;-6.03;98.29
49473;BME280;73594;50.944;6.950;2024-01-11T06:56:26;102721.03;;;-6.03;98.25
49473;BME280;73594;50.944;6.950;2024-01-11T06:58:52;102726.50;;;-6.06;97.86
49473;BME280;73594;50.944;6.950;2024-01-11T07:01:17;102720.91;;;-6.14;97.88
49473;BME280;73594;50.944;6.950;2024-01-11T07:03:43;102730.28;;;-6.10;97.91
49473;BME280;73594;50.944;6.950;2024-01-11T07:06:08;102738.84;;;-6.07;97.71
49473;BME280;73594;50.944;6.950;2024-01-11T07:08:34;102730.69;;;-6.16;97.62
49473;BME280;73594;50.944;6.950;2024-01-11T07:11:00;102730.91;;;-6.19;97.78
49473;BME280;73594;50.944;6.950;2024-01-11T07:13:28;102732.69;;;-6.20;98.04
49473;BME280;73594;50.944;6.950;2024-01-11T07:15:53;102722.56;;;-6.26;98.71
49473;BME280;73594;50.944;6.950;2024-01-11T07:18:21;102728.97;;;-6.30;98.94
49473;BME280;73594;50.944;6.950;2024-01-11T07:20:46;102722.09;;;-6.33;98.61
49473;BME280;73594;50.944;6.950;2024-01-11T07:23:13;102725.09;;;-6.39;98.87
49473;BME280;73594;50.944;6.950;2024-01-11T07:25:39;102734.50;;;-6.35;99.14
49473;BME280;73594;50.944;6.950;2024-01-11T07:28:04;102726.69;;;-6.36;99.08
49473;BME280;73594;50.944;6.950;2024-01-11T07:30:30;102721.34;;;-6.35;98.90
49473;BME280;73594;50.944;6.950;2024-01-11T07:32:55;102731.50;;;-6.28;98.63
49473;BME280;73594;50.944;6.950;2024-01-11T07:35:21;102739.41;;;-6.28;98.76
49473;BME280;73594;50.944;6.950;2024-01-11T07:37:46;102748.13;;;-6.28;98.47
49473;BME280;73594;50.944;6.950;2024-01-11T07:40:12;102755.44;;;-6.33;98.58
49473;BME280;73594;50.944;6.950;2024-01-11T07:42:39;102765.13;;;-6.34;98.96
49473;BME280;73594;50.944;6.950;2024-01-11T07:45:06;102764.28;;;-6.34;98.91
49473;BME280;73594;50.944;6.950;2024-01-11T07:47:33;102776.50;;;-6.33;98.95
49473;BME280;73594;50.944;6.950;2024-01-11T07:49:59;102782.59;;;-6.33;99.07
49473;BME280;73594;50.944;6.950;2024-01-11T07:52:24;102789.75;;;-6.35;98.86
49473;BME280;73594;50.944;6.950;2024-01-11T07:54:50;102793.44;;;-6.37;98.82
49473;BME280;73594;50.944;6.950;2024-01-11T07:57:15;102793.31;;;-6.36;99.32
49473;BME280;73594;50.944;6.950;2024-01-11T07:59:41;102806.28;;;-6.33;99.12
49473;BME280;73594;50.944;6.950;2024-01-11T08:02:06;102804.91;;;-6.38;98.80
49473;BME280;73594;50.944;6.950;2024-01-11T08:04:32;102806.78;;;-6.40;98.96
49473;BME280;73594;50.944;6.950;2024-01-11T08:06:58;102803.31;;;-6.41;99.05
49473;BME280;73594;50.944;6.950;2024-01-11T08:09:25;102799.81;;;-6.41;99.12
49473;BME280;73594;50.944;6.950;2024-01-11T08:11:51;102803.41;;;-6.42;99.25
49473;BME280;73594;50.944;6.950;2024-01-11T08:14:17;102798.78;;;-6.39;99.49
49473;BME280;73594;50.944;6.950;2024-01-11T08:16:43;102788.06;;;-6.36;99.04
49473;BME280;73594;50.944;6.950;2024-01-11T08:19:09;102798.22;;;-6.29;99.62
49473;BME280;73594;50.944;6.950;2024-01-11T08:21:35;102786.56;;;-6.25;99.47
49473;BME280;73594;50.944;6.950;2024-01-11T08:24:01;102794.81;;;-6.17;99.10
49473;BME280;73594;50.944;6.950;2024-01-11T08:26:28;102798.94;;;-6.13;99.03
49473;BME280;73594;50.944;6.950;2024-01-11T08:28:53;102791.25;;;-6.16;99.06
49473;BME280;73594;50.944;6.950;2024-01-11T08:31:19;102793.56;;;-6.12;99.21
49473;BME280;73594;50.944;6.950;2024-01-11T08:33:44;102791.97;;;-6.14;99.46
49473;BME280;73594;50.944;6.950;2024-01-11T08:36:10;102786.41;;;-6.10;99.35
49473;BME280;73594;50.944;6.950;2024-01-11T08:38:39;102780.47;;;-5.99;99.01
49473;BME280;73594;50.944;6.950;2024-01-11T08:41:05;102778.66;;;-5.99;98.57
49473;BME280;73594;50.944;6.950;2024-01-11T08:43:31;102771.84;;;-5.88;98.32
49473;BME280;73594;50.944;6.950;2024-01-11T08:45:57;102781.88;;;-5.81;98.41
49473;BME280;73594;50.944;6.950;2024-01-11T08:48:22;102779.03;;;-5.78;98.38
49473;BME280;73594;50.944;6.950;2024-01-11T08:50:48;102776.75;;;-5.70;97.67
49473;BME280;73594;50.944;6.950;2024-01-11T08:53:13;102776.34;;;-5.63;97.92
49473;BME280;73594;50.944;6.950;2024-01-11T08:55:38;102783.94;;;-5.59;97.21
49473;BME280;73594;50.944;6.950;2024-01-11T08:58:04;102771.13;;;-5.51;97.11
49473;BME280;73594;50.944;6.950;2024-01-11T09:00:29;102768.91;;;-5.44;96.85
49473;BME280;73594;50.944;6.950;2024-01-11T09:02:55;102772.19;;;-5.41;96.65
49473;BME280;73594;50.944;6.950;2024-01-11T09:05:20;102779.78;;;-5.36;96.52
49473;BME280;73594;50.944;6.950;2024-01-11T09:07:46;102785.72;;;-5.20;95.60
49473;BME280;73594;50.944;6.950;2024-01-11T09:10:12;102793.53;;;-5.18;95.43
49473;BME280;73594;50.944;6.950;2024-01-11T09:12:38;102796.06;;;-5.17;94.87
49473;BME280;73594;50.944;6.950;2024-01-11T09:15:04;102797.84;;;-5.17;94.66
49473;BME280;73594;50.944;6.950;2024-01-11T09:17:31;102800.91;;;-5.11;94.49
49473;BME280;73594;50.944;6.950;2024-01-11T09:19:56;102795.44;;;-5.08;94.31
49473;BME280;73594;50.944;6.950;2024-01-11T09:22:22;102810.50;;;-4.97;94.35
49473;BME280;73594;50.944;6.950;2024-01-11T09:24:48;102805.75;;;-4.92;93.84
49473;BME280;73594;50.944;6.950;2024-01-11T09:27:13;102810.50;;;-4.84;93.69
49473;BME280;73594;50.944;6.950;2024-01-11T09:29:43;102805.78;;;-4.79;93.52
49473;BME280;73594;50.944;6.950;2024-01-11T09:32:09;102809.06;;;-4.76;93.39
49473;BME280;73594;50.944;6.950;2024-01-11T09:34:36;102801.25;;;-4.77;93.64
49473;BME280;73594;50.944;6.950;2024-01-11T09:37:02;102796.19;;;-4.80;93.80
49473;BME280;73594;50.944;6.950;2024-01-11T09:39:28;102814.19;;;-4.61;94.01
49473;BME280;73594;50.944;6.950;2024-01-11T09:41:59;102818.31;;;-4.57;93.85
49473;BME280;73594;50.944;6.950;2024-01-11T09:44:29;102822.19;;;-4.50;93.82
49473;BME280;73594;50.944;6.950;2024-01-11T09:46:57;102818.09;;;-4.42;93.19
49473;BME280;73594;50.944;6.950;2024-01-11T09:49:23;102822.22;;;-4.37;93.05
49473;BME280;73594;50.944;6.950;2024-01-11T09:51:49;102823.34;;;-4.29;93.02
49473;BME280;73594;50.944;6.950;2024-01-11T09:54:15;102811.94;;;-4.29;92.60
49473;BME280;73594;50.944;6.950;2024-01-11T09:56:43;102821.94;;;-4.22;92.48
49473;BME280;73594;50.944;6.950;2024-01-11T09:59:09;102828.59;;;-4.16;92.83
49473;BME280;73594;50.944;6.950;2024-01-11T10:01:36;102835.03;;;-4.07;92.65
49473;BME280;73594;50.944;6.950;2024-01-11T10:04:02;102828.06;;;-4.08;92.83
49473;BME280;73594;50.944;6.950;2024-01-11T10:06:31;102817.28;;;-4.05;92.56
49473;BME280;73594;50.944;6.950;2024-01-11T10:08:58;102831.00;;;-4.00;92.30
49473;BME280;73594;50.944;6.950;2024-01-11T10:11:23;102833.63;;;-4.00;92.17
49473;BME280;73594;50.944;6.950;2024-01-11T10:13:57;102827.69;;;-3.91;91.81
49473;BME280;73594;50.944;6.950;2024-01-11T10:16:23;102843.94;;;-3.85;91.46
49473;BME280;73594;50.944;6.950;2024-01-11T10:18:53;102832.41;;;-3.84;91.08
49473;BME280;73594;50.944;6.950;2024-01-11T10:21:19;102831.63;;;-3.73;90.57
49473;BME280;73594;50.944;6.950;2024-01-11T10:23:44;102818.31;;;-3.71;90.95
49473;BME280;73594;50.944;6.950;2024-01-11T10:26:09;102823.88;;;-3.63;90.65
49473;BME280;73594;50.944;6.950;2024-01-11T10:28:35;102811.38;;;-3.61;90.38
49473;BME280;73594;50.944;6.950;2024-01-11T10:31:04;102812.38;;;-3.51;90.21
49473;BME280;73594;50.944;6.950;2024-01-11T10:33:33;102816.38;;;-3.46;89.85
49473;BME280;73594;50.944;6.950;2024-01-11T10:35:59;102812.75;;;-3.44;89.20
49473;BME280;73594;50.944;6.950;2024-01-11T10:38:26;102813.59;;;-3.44;88.54
49473;BME280;73594;50.944;6.950;2024-01-11T10:40:55;102815.06;;;-3.40;88.63
49473;BME280;73594;50.944;6.950;2024-01-11T10:43:22;102811.22;;;-3.36;88.42
49473;BME280;73594;50.944;6.950;2024-01-11T10:45:57;102813.78;;;-3.34;88.35
49473;BME280;73594;50.944;6.950;2024-01-11T10:48:25;102817.78;;;-3.29;88.55
49473;BME280;73594;50.944;6.950;2024-01-11T10:51:00;102812.91;;;-3.35;88.13
49473;BME280;73594;50.944;6.950;2024-01-11T10:53:45;102799.97;;;-3.27;88.60
49473;BME280;73594;50.944;6.950;2024-01-11T10:56:17;102804.81;;;-3.21;87.58
49473;BME280;73594;50.944;6.950;2024-01-11T10:58:44;102803.50;;;-3.15;86.78
49473;BME280;73594;50.944;6.950;2024-01-11T11:01:11;102806.84;;;-3.13;85.92
49473;BME280;73594;50.944;6.950;2024-01-11T11:03:37;102812.16;;;-3.13;86.03
49473;BME280;73594;50.944;6.950;2024-01-11T11:06:05;102808.91;;;-3.17;86.00
49473;BME280;73594;50.944;6.950;2024-01-11T11:08:31;102816.84;;;-3.17;86.41
49473;BME280;73594;50.944;6.950;2024-01-11T11:10:58;102827.06;;;-3.12;86.73
49473;BME280;73594;50.944;6.950;2024-01-11T11:13:24;102840.16;;;-3.10;86.62
49473;BME280;73594;50.944;6.950;2024-01-11T11:15:52;102834.06;;;-3.00;86.60
49473;BME280;73594;50.944;6.950;2024-01-11T11:18:19;102830.81;;;-3.03;85.90
49473;BME280;73594;50.944;6.950;2024-01-11T11:20:45;102840.06;;;-2.98;86.31
49473;BME280;73594;50.944;6.950;2024-01-11T11:23:14;102842.72;;;-2.98;85.48
49473;BME280;73594;50.944;6.950;2024-01-11T11:25:40;102845.03;;;-2.93;85.91
49473;BME280;73594;50.944;6.950;2024-01-11T11:28:06;102830.00;;;-2.93;85.54
49473;BME280;73594;50.944;6.950;2024-01-11T11:30:40;102837.09;;;-2.93;85.70
49473;BME280;73594;50.944;6.950;2024-01-11T11:33:37;102829.31;;;-2.84;86.02
49473;BME280;73594;50.944;6.950;2024-01-11T11:36:02;102829.91;;;-2.80;85.57
49473;BME280;73594;50.944;6.950;2024-01-11T11:38:29;102820.75;;;-2.76;85.94
49473;BME280;73594;50.944;6.950;2024-01-11T11:40:58;102808.72;;;-2.80;85.50
49473;BME280;73594;50.944;6.950;2024-01-11T11:43:24;102813.31;;;-2.71;85.25
49473;BME280;73594;50.944;6.950;2024-01-11T11:45:53;102802.59;;;-2.69;85.31
49473;BME280;73594;50.944;6.950;2024-01-11T11:53:39;102800.22;;;-2.50;84.68
49473;BME280;73594;50.944;6.950;2024-01-11T11:56:05;102802.25;;;-2.42;84.46
49473;BME280;73594;50.944;6.950;2024-01-11T11:58:32;102803.94;;;-2.41;84.94
49473;BME280;73594;50.944;6.950;2024-01-11T12:00:59;102811.16;;;-2.43;84.41
49473;BME280;73594;50.944;6.950;2024-01-11T12:03:32;102817.66;;;-2.36;84.57
49473;BME280;73594;50.944;6.950;2024-01-11T12:05:58;102817.53;;;-2.35;84.30
49473;BME280;73594;50.944;6.950;2024-01-11T12:08:24;102824.13;;;-2.29;84.08
49473;BME280;73594;50.944;6.950;2024-01-11T12:10:50;102812.56;;;-2.28;83.72
49473;BME280;73594;50.944;6.950;2024-01-11T12:13:16;102817.63;;;-2.25;83.20
49473;BME280;73594;50.944;6.950;2024-01-11T12:15:41;102806.69;;;-2.21;82.64
49473;BME280;73594;50.944;6.950;2024-01-11T12:18:07;102801.75;;;-2.14;82.86
49473;BME280;73594;50.944;6.950;2024-01-11T12:20:33;102797.28;;;-2.13;82.35
49473;BME280;73594;50.944;6.950;2024-01-11T12:22:58;102797.03;;;-2.10;81.96
49473;BME280;73594;50.944;6.950;2024-01-11T12:25:25;102799.09;;;-2.14;82.18
49473;BME280;73594;50.944;6.950;2024-01-11T12:27:51;102797.84;;;-1.99;82.46
49473;BME280;73594;50.944;6.950;2024-01-11T12:30:17;102783.16;;;-2.03;82.71
49473;BME280;73594;50.944;6.950;2024-01-11T12:32:43;102779.66;;;-2.03;82.61
49473;BME280;73594;50.944;6.950;2024-01-11T12:35:09;102774.13;;;-2.00;82.66
49473;BME280;73594;50.944;6.950;2024-01-11T12:37:35;102766.00;;;-1.88;83.01
49473;BME280;73594;50.944;6.950;2024-01-11T12:40:00;102763.00;;;-1.83;82.21
49473;BME280;73594;50.944;6.950;2024-01-11T12:42:29;102755.75;;;-1.81;82.91
49473;BME280;73594;50.944;6.950;2024-01-11T12:44:55;102756.34;;;-1.77;82.42
49473;BME280;73594;50.944;6.950;2024-01-11T12:47:20;102740.44;;;-1.77;82.37
49473;BME280;73594;50.944;6.950;2024-01-11T12:49:46;102751.13;;;-1.68;82.67